Time;durP1;ratioP1;P1;durP2;ratioP2;P2;SDS_P1;SDS_P2;PMS_P1;PMS_P2;Temp;Humidity;BMP_temperature;BMP_pressure;BME280_temperature;BME280_humidity;BME280_pressure;Samples;Min_cycle;Max_cycle;Signal;HPM_P1;HPM_P2
2022/10/30 00:00:17;;;;;;;;;;;13.70;99.90;;;;;;5092962;28;20292;-74
2022/10/30 00:02:45;;;;;;;;;;;13.70;99.90;;;;;;5093456;28;19909;-74
2022/10/30 00:05:10;;;;;;;;;;;13.70;99.90;;;;;;5093009;28;19916;-75
2022/10/30 00:07:36;;;;;;;;;;;13.60;99.90;;;;;;5093178;28;19935;-76
2022/10/30 00:10:01;;;;;;;;;;;13.60;99.90;;;;;;5092037;28;19950;-75
2022/10/30 00:12:27;;;;;;;;;;;13.60;99.90;;;;;;5093035;28;19912;-75
2022/10/30 00:14:52;;;;;;;;;;;13.60;99.90;;;;;;5092865;28;19908;-77
2022/10/30 00:17:18;;;;;;;;;;;13.60;99.90;;;;;;5092618;28;20368;-76
2022/10/30 00:19:44;;;;;;;;;;;13.60;99.90;;;;;;5092651;28;19908;-77
2022/10/30 00:22:09;;;;;;;;;;;13.60;99.90;;;;;;5091808;28;19991;-77
2022/10/30 00:24:35;;;;;;;;;;;13.60;99.90;;;;;;5092655;28;19912;-76
2022/10/30 00:27:00;;;;;;;;;;;13.50;99.90;;;;;;5091465;28;19920;-76
2022/10/30 00:29:26;;;;;;;;;;;13.40;99.90;;;;;;5091860;28;19912;-76
2022/10/30 00:31:52;;;;;;;;;;;13.30;99.90;;;;;;5091294;28;19947;-76
2022/10/30 00:34:17;;;;;;;;;;;13.30;99.90;;;;;;5090862;28;19915;-76
2022/10/30 00:36:43;;;;;;;;;;;13.20;99.90;;;;;;5092159;28;19909;-76
2022/10/30 00:39:09;;;;;;;;;;;13.20;99.90;;;;;;5091790;28;20268;-76
2022/10/30 00:41:35;;;;;;;;;;;13.20;99.90;;;;;;5092819;28;19908;-76
2022/10/30 00:44:01;;;;;;;;;;;13.30;99.90;;;;;;5091852;28;19931;-76
2022/10/30 00:46:29;;;;;;;;;;;13.30;99.90;;;;;;5091676;28;20567;-76
2022/10/30 00:49:15;;;;;;;;;;;13.20;99.90;;;;;;5092814;28;20376;-76
2022/10/30 00:51:42;;;;;;;;;;;13.10;99.90;;;;;;5092715;28;19912;-77
2022/10/30 00:54:09;;;;;;;;;;;13.00;99.90;;;;;;5091508;28;19915;-76
2022/10/30 00:56:35;;;;;;;;;;;13.00;99.90;;;;;;5092083;28;20392;-75
2022/10/30 00:59:03;;;;;;;;;;;12.90;99.90;;;;;;5091229;28;20014;-75
2022/10/30 01:01:31;;;;;;;;;;;12.80;99.90;;;;;;5091455;28;19908;-76
2022/10/30 01:03:58;;;;;;;;;;;12.70;99.90;;;;;;5091185;28;20002;-75
2022/10/30 01:06:25;;;;;;;;;;;12.70;99.90;;;;;;5091572;28;19916;-75
2022/10/30 01:08:52;;;;;;;;;;;12.60;99.90;;;;;;5091998;28;19919;-75
2022/10/30 01:11:18;;;;;;;;;;;12.60;99.90;;;;;;5091631;28;19908;-75
2022/10/30 01:13:45;;;;;;;;;;;12.60;99.90;;;;;;5092416;28;19908;-75
2022/10/30 01:16:11;;;;;;;;;;;12.40;99.90;;;;;;5091380;28;19948;-76
2022/10/30 01:19:06;;;;;;;;;;;12.40;99.90;;;;;;5090933;28;19952;-76
2022/10/30 01:21:49;;;;;;;;;;;12.30;99.90;;;;;;5082479;28;19912;-75
2022/10/30 01:24:18;;;;;;;;;;;12.20;99.90;;;;;;5090127;28;19962;-76
2022/10/30 01:26:50;;;;;;;;;;;12.20;99.90;;;;;;5091090;28;19919;-75
2022/10/30 01:29:15;;;;;;;;;;;12.10;99.90;;;;;;5091990;28;19908;-74
2022/10/30 01:31:44;;;;;;;;;;;12.00;99.90;;;;;;5090777;28;19966;-75
2022/10/30 01:34:18;;;;;;;;;;;12.00;99.90;;;;;;5091947;28;19935;-76
2022/10/30 01:37:04;;;;;;;;;;;11.90;99.90;;;;;;5092466;28;19953;-76
2022/10/30 01:39:38;;;;;;;;;;;12.00;99.90;;;;;;5092246;28;19997;-76
2022/10/30 01:42:10;;;;;;;;;;;12.00;99.90;;;;;;5092339;28;19915;-76
2022/10/30 01:44:36;;;;;;;;;;;12.00;99.90;;;;;;5090831;28;20377;-76
2022/10/30 01:47:11;;;;;;;;;;;12.10;99.90;;;;;;5092798;28;19954;-75
2022/10/30 01:49:55;;;;;;;;;;;12.10;99.90;;;;;;5092364;28;19912;-75
2022/10/30 01:52:40;;;;;;;;;;;12.20;99.90;;;;;;5093942;28;19912;-75
2022/10/30 01:55:06;;;;;;;;;;;12.30;99.90;;;;;;5096437;28;20273;-75
2022/10/30 01:57:54;;;;;;;;;;;12.30;99.90;;;;;;5095599;28;19908;-75
2022/10/30 02:00:20;;;;;;;;;;;12.30;99.90;;;;;;5093945;28;19918;-75
2022/10/30 02:02:47;;;;;;;;;;;12.40;99.90;;;;;;5095825;28;20365;-75
2022/10/30 02:05:17;;;;;;;;;;;12.40;99.90;;;;;;5094938;28;19924;-76
2022/10/30 02:07:43;;;;;;;;;;;12.30;99.90;;;;;;5095410;28;19998;-75
2022/10/30 02:10:10;;;;;;;;;;;12.20;99.90;;;;;;5096168;28;20367;-76
2022/10/30 02:12:35;;;;;;;;;;;12.20;99.90;;;;;;5095886;28;19908;-76
2022/10/30 02:15:01;;;;;;;;;;;12.20;99.90;;;;;;5095690;28;19908;-76
2022/10/30 02:17:27;;;;;;;;;;;12.20;99.90;;;;;;5095082;28;20010;-76
2022/10/30 02:19:52;;;;;;;;;;;12.20;99.90;;;;;;5095500;28;19914;-76
2022/10/30 02:22:18;;;;;;;;;;;12.20;99.90;;;;;;5095015;28;19908;-76
2022/10/30 02:24:44;;;;;;;;;;;12.10;99.90;;;;;;5095558;28;19912;-76
2022/10/30 02:27:10;;;;;;;;;;;12.20;99.90;;;;;;5095543;28;20010;-75
2022/10/30 02:29:35;;;;;;;;;;;12.30;99.90;;;;;;5095392;28;19969;-76
2022/10/30 02:32:01;;;;;;;;;;;12.30;99.90;;;;;;5095623;28;19912;-75
2022/10/30 02:34:26;;;;;;;;;;;12.40;99.90;;;;;;5094362;28;20037;-75
2022/10/30 02:36:52;;;;;;;;;;;12.50;99.90;;;;;;5093862;28;19931;-75
2022/10/30 02:39:20;;;;;;;;;;;12.50;99.90;;;;;;5094441;28;19991;-75
2022/10/30 02:41:46;;;;;;;;;;;12.50;99.90;;;;;;5095107;28;19915;-75
2022/10/30 02:44:11;;;;;;;;;;;12.50;99.90;;;;;;5094829;28;20273;-75
2022/10/30 02:46:37;;;;;;;;;;;12.60;99.90;;;;;;5094957;28;20288;-76
2022/10/30 02:49:02;;;;;;;;;;;12.60;99.90;;;;;;5094804;28;19961;-76
2022/10/30 02:51:29;;;;;;;;;;;12.70;99.90;;;;;;5094185;28;19915;-76
2022/10/30 02:53:55;;;;;;;;;;;12.80;99.90;;;;;;5093039;28;19951;-76
2022/10/30 02:56:21;;;;;;;;;;;12.80;99.90;;;;;;5094368;28;19951;-76
2022/10/30 02:58:46;;;;;;;;;;;12.90;99.90;;;;;;5094680;28;19908;-75
2022/10/30 03:01:16;;;;;;;;;;;12.90;99.90;;;;;;5095056;28;20365;-76
2022/10/30 03:03:42;;;;;;;;;;;12.80;99.90;;;;;;5094552;28;20349;-76
2022/10/30 03:06:08;;;;;;;;;;;12.80;99.90;;;;;;5094692;28;19923;-76
2022/10/30 03:08:34;;;;;;;;;;;12.80;99.90;;;;;;5094170;28;20398;-76
2022/10/30 03:11:01;;;;;;;;;;;12.90;99.90;;;;;;5094503;28;19908;-75
2022/10/30 03:13:28;;;;;;;;;;;12.90;99.90;;;;;;5093862;28;19951;-75
2022/10/30 03:15:58;;;;;;;;;;;12.90;99.90;;;;;;5093304;28;20375;-76
2022/10/30 03:18:23;;;;;;;;;;;12.90;99.90;;;;;;5094176;28;19943;-75
2022/10/30 03:20:49;;;;;;;;;;;12.90;99.90;;;;;;5093854;28;19993;-75
2022/10/30 03:23:14;;;;;;;;;;;12.90;99.90;;;;;;5094121;28;19908;-75
2022/10/30 03:25:40;;;;;;;;;;;12.90;99.90;;;;;;5094053;28;20388;-75
2022/10/30 03:28:05;;;;;;;;;;;12.90;99.90;;;;;;5094069;28;19912;-75
2022/10/30 03:30:31;;;;;;;;;;;12.90;99.90;;;;;;5093060;28;19919;-75
2022/10/30 03:32:56;;;;;;;;;;;12.90;99.90;;;;;;5093113;28;19934;-75
2022/10/30 03:35:22;;;;;;;;;;;13.00;99.90;;;;;;5093355;28;20277;-74
2022/10/30 03:37:47;;;;;;;;;;;13.00;99.90;;;;;;5092863;28;19947;-75
2022/10/30 03:40:13;;;;;;;;;;;13.00;99.90;;;;;;5093660;28;19991;-75
2022/10/30 03:42:39;;;;;;;;;;;12.90;99.90;;;;;;5093223;28;19994;-75
2022/10/30 03:45:05;;;;;;;;;;;12.90;99.90;;;;;;5092368;28;20280;-75
2022/10/30 03:47:30;;;;;;;;;;;12.90;99.90;;;;;;5093369;28;19912;-75
2022/10/30 03:49:56;;;;;;;;;;;12.80;99.90;;;;;;5093784;28;19915;-75
2022/10/30 03:52:21;;;;;;;;;;;12.80;99.90;;;;;;5093310;28;19912;-75
2022/10/30 03:54:47;;;;;;;;;;;12.80;99.90;;;;;;5093605;28;20395;-75
2022/10/30 03:57:12;;;;;;;;;;;12.80;99.90;;;;;;5092314;28;19998;-75
2022/10/30 03:59:38;;;;;;;;;;;12.80;99.90;;;;;;5093012;28;20288;-76
2022/10/30 04:02:03;;;;;;;;;;;12.80;99.90;;;;;;5093456;28;19957;-75
2022/10/30 04:04:29;;;;;;;;;;;12.80;99.90;;;;;;5091600;28;19916;-75
2022/10/30 04:06:55;;;;;;;;;;;12.90;99.90;;;;;;5093355;28;20340;-75
2022/10/30 04:09:20;;;;;;;;;;;13.00;99.90;;;;;;5092961;28;20320;-76
2022/10/30 04:11:46;;;;;;;;;;;13.10;99.90;;;;;;5093456;28;19908;-75
2022/10/30 04:14:11;;;;;;;;;;;13.20;99.90;;;;;;5093090;28;19930;-75
2022/10/30 04:16:37;;;;;;;;;;;13.20;99.90;;;;;;5091446;28;19965;-75
2022/10/30 04:19:02;;;;;;;;;;;13.30;99.90;;;;;;5093596;28;19908;-75
2022/10/30 04:21:28;;;;;;;;;;;13.30;99.90;;;;;;5092786;28;20397;-75
2022/10/30 04:23:53;;;;;;;;;;;13.30;99.90;;;;;;5091981;28;19908;-75
2022/10/30 04:26:19;;;;;;;;;;;13.20;99.90;;;;;;5092726;28;19999;-76
2022/10/30 04:28:46;;;;;;;;;;;13.20;99.90;;;;;;5092971;28;20434;-74
2022/10/30 04:31:12;;;;;;;;;;;13.20;99.90;;;;;;5092934;28;19943;-74
2022/10/30 04:33:37;;;;;;;;;;;13.30;99.90;;;;;;5092837;28;20423;-75
2022/10/30 04:36:03;;;;;;;;;;;13.30;99.90;;;;;;5092629;28;20254;-75
2022/10/30 04:38:29;;;;;;;;;;;13.30;99.90;;;;;;5091370;28;19916;-75
2022/10/30 04:40:54;;;;;;;;;;;13.30;99.90;;;;;;5093097;28;19909;-75
2022/10/30 04:43:20;;;;;;;;;;;13.40;99.90;;;;;;5092706;28;19936;-75
2022/10/30 04:45:45;;;;;;;;;;;13.50;99.90;;;;;;5092849;28;19920;-75
2022/10/30 04:48:15;;;;;;;;;;;13.50;99.90;;;;;;5093000;28;20349;-75
2022/10/30 04:50:42;;;;;;;;;;;13.50;99.90;;;;;;5092408;28;19912;-75
2022/10/30 04:53:15;;;;;;;;;;;13.50;99.90;;;;;;5092953;28;19973;-76
2022/10/30 04:55:41;;;;;;;;;;;13.50;99.90;;;;;;5092377;28;19985;-75
2022/10/30 04:58:08;;;;;;;;;;;13.50;99.90;;;;;;5092981;28;20325;-76
2022/10/30 05:00:33;;;;;;;;;;;13.40;99.90;;;;;;5092392;28;19908;-76
2022/10/30 05:03:02;;;;;;;;;;;13.40;99.90;;;;;;5092682;28;20261;-75
2022/10/30 05:05:28;;;;;;;;;;;13.40;99.90;;;;;;5092287;28;19920;-75
2022/10/30 05:07:53;;;;;;;;;;;13.30;99.90;;;;;;5092611;28;19999;-75
2022/10/30 05:10:19;;;;;;;;;;;13.30;99.90;;;;;;5092422;28;20480;-75
2022/10/30 05:12:45;;;;;;;;;;;13.30;99.90;;;;;;5091072;28;19912;-75
2022/10/30 05:15:11;;;;;;;;;;;13.30;99.90;;;;;;5092422;28;20262;-75
2022/10/30 05:17:37;;;;;;;;;;;13.20;99.90;;;;;;5091687;28;20460;-76
2022/10/30 05:20:03;;;;;;;;;;;13.20;99.90;;;;;;5092353;28;19908;-76
2022/10/30 05:22:29;;;;;;;;;;;13.10;99.90;;;;;;5092193;28;20331;-75
2022/10/30 05:24:54;;;;;;;;;;;13.10;99.90;;;;;;5092708;28;19916;-75
2022/10/30 05:27:20;;;;;;;;;;;13.10;99.90;;;;;;5094208;28;19916;-75
2022/10/30 05:29:45;;;;;;;;;;;13.00;99.90;;;;;;5095954;28;20347;-75
2022/10/30 05:32:11;;;;;;;;;;;13.00;99.90;;;;;;5096364;28;19908;-76
2022/10/30 05:34:37;;;;;;;;;;;12.90;99.90;;;;;;5095872;28;19912;-76
2022/10/30 05:37:02;;;;;;;;;;;12.90;99.90;;;;;;5096059;28;19908;-76
2022/10/30 05:39:28;;;;;;;;;;;12.90;99.90;;;;;;5095828;28;19908;-76
2022/10/30 05:41:53;;;;;;;;;;;12.90;99.90;;;;;;5096441;28;19909;-77
2022/10/30 05:44:19;;;;;;;;;;;12.80;99.90;;;;;;5095866;28;19921;-76
2022/10/30 05:46:44;;;;;;;;;;;12.80;99.90;;;;;;5095850;28;19908;-76
2022/10/30 05:49:10;;;;;;;;;;;12.70;99.90;;;;;;5096337;28;19908;-76
2022/10/30 05:51:35;;;;;;;;;;;12.60;99.90;;;;;;5095641;28;19908;-77
2022/10/30 05:54:01;;;;;;;;;;;12.60;99.90;;;;;;5094715;28;19913;-76
2022/10/30 05:56:26;;;;;;;;;;;12.50;99.90;;;;;;5095755;28;19912;-75
2022/10/30 05:58:52;;;;;;;;;;;12.50;99.90;;;;;;5095729;28;19909;-75
2022/10/30 06:01:18;;;;;;;;;;;12.50;99.90;;;;;;5095968;28;19908;-76
2022/10/30 06:03:43;;;;;;;;;;;12.40;99.90;;;;;;5094316;28;19908;-76
2022/10/30 06:06:09;;;;;;;;;;;12.40;99.90;;;;;;5095693;28;19916;-75
2022/10/30 06:08:35;;;;;;;;;;;12.40;99.90;;;;;;5094769;28;19908;-75
2022/10/30 06:11:00;;;;;;;;;;;12.30;99.90;;;;;;5094450;28;19915;-76
2022/10/30 06:13:26;;;;;;;;;;;12.30;99.90;;;;;;5094963;28;20001;-76
2022/10/30 06:15:55;;;;;;;;;;;12.20;99.90;;;;;;5095496;28;19978;-76
2022/10/30 06:18:21;;;;;;;;;;;12.30;99.90;;;;;;5095591;28;19934;-76
2022/10/30 06:20:46;;;;;;;;;;;12.30;99.90;;;;;;5095079;28;19904;-75
2022/10/30 06:23:12;;;;;;;;;;;12.30;99.90;;;;;;5095813;28;19915;-75
2022/10/30 06:25:38;;;;;;;;;;;12.30;99.90;;;;;;5094803;28;19916;-76
2022/10/30 06:28:03;;;;;;;;;;;12.30;99.90;;;;;;5095303;28;19931;-75
2022/10/30 06:30:29;;;;;;;;;;;12.30;99.90;;;;;;5094500;28;20258;-76
2022/10/30 06:32:55;;;;;;;;;;;12.30;99.90;;;;;;5095272;28;19908;-76
2022/10/30 06:35:21;;;;;;;;;;;12.30;99.90;;;;;;5095061;28;20354;-75
2022/10/30 06:37:47;;;;;;;;;;;12.30;99.90;;;;;;5092926;28;19908;-76
2022/10/30 06:40:13;;;;;;;;;;;12.30;99.90;;;;;;5094725;28;19909;-75
2022/10/30 06:42:45;;;;;;;;;;;12.30;99.90;;;;;;5094668;28;19908;-76
2022/10/30 06:45:11;;;;;;;;;;;12.30;99.90;;;;;;5094647;28;19928;-76
2022/10/30 06:47:37;;;;;;;;;;;12.30;99.90;;;;;;5094521;28;20010;-75
2022/10/30 06:50:04;;;;;;;;;;;12.30;99.90;;;;;;5094757;28;19951;-75
2022/10/30 06:52:29;;;;;;;;;;;12.20;99.90;;;;;;5093400;28;19908;-75
2022/10/30 06:54:55;;;;;;;;;;;12.20;99.90;;;;;;5094957;28;19915;-75
2022/10/30 06:57:21;;;;;;;;;;;12.20;99.90;;;;;;5094999;28;19912;-76
2022/10/30 06:59:46;;;;;;;;;;;12.20;99.90;;;;;;5094296;28;19908;-75
2022/10/30 07:02:12;;;;;;;;;;;12.30;99.90;;;;;;5094596;28;19955;-76
2022/10/30 07:04:37;;;;;;;;;;;12.30;99.90;;;;;;5093753;28;19912;-76
2022/10/30 07:07:03;;;;;;;;;;;12.30;99.90;;;;;;5094160;28;19912;-75
2022/10/30 07:09:29;;;;;;;;;;;12.40;99.90;;;;;;5094174;28;20025;-75
2022/10/30 07:11:54;;;;;;;;;;;12.40;99.90;;;;;;5094282;28;19915;-76
2022/10/30 07:14:20;;;;;;;;;;;12.40;99.90;;;;;;5094946;28;19908;-76
2022/10/30 07:16:46;;;;;;;;;;;12.40;99.90;;;;;;5093854;28;19912;-76
2022/10/30 07:19:12;;;;;;;;;;;12.40;99.90;;;;;;5094408;28;19908;-76
2022/10/30 07:21:37;;;;;;;;;;;12.40;99.90;;;;;;5093867;28;19955;-76
2022/10/30 07:24:03;;;;;;;;;;;12.50;99.90;;;;;;5092965;28;19913;-76
2022/10/30 07:26:29;;;;;;;;;;;12.40;99.90;;;;;;5094114;28;19916;-75
2022/10/30 07:28:54;;;;;;;;;;;12.50;99.90;;;;;;5094330;28;19908;-75
2022/10/30 07:31:20;;;;;;;;;;;12.50;99.90;;;;;;5094184;28;19961;-76
2022/10/30 07:33:45;;;;;;;;;;;12.50;99.90;;;;;;5093399;28;20365;-75
2022/10/30 07:36:11;;;;;;;;;;;12.50;99.90;;;;;;5094101;28;19962;-74
2022/10/30 07:38:37;;;;;;;;;;;12.50;99.90;;;;;;5093174;28;20284;-75
2022/10/30 07:41:02;;;;;;;;;;;12.50;99.90;;;;;;5094967;28;19915;-73
2022/10/30 07:43:28;;;;;;;;;;;12.50;99.90;;;;;;5094453;28;20408;-74
2022/10/30 07:45:54;;;;;;;;;;;12.50;99.90;;;;;;5093541;28;19947;-75
2022/10/30 07:48:19;;;;;;;;;;;12.50;99.90;;;;;;5092562;28;19909;-75
2022/10/30 07:50:45;;;;;;;;;;;12.60;99.90;;;;;;5092638;28;19923;-75
2022/10/30 07:53:11;;;;;;;;;;;12.60;99.90;;;;;;5094028;28;19922;-74
2022/10/30 07:55:36;;;;;;;;;;;12.60;99.90;;;;;;5093046;28;19980;-75
2022/10/30 07:58:02;;;;;;;;;;;12.60;99.90;;;;;;5093958;28;19914;-74
2022/10/30 08:00:27;;;;;;;;;;;12.60;99.90;;;;;;5093933;28;19912;-75
2022/10/30 08:02:55;;;;;;;;;;;12.70;99.90;;;;;;5092941;28;19912;-75
2022/10/30 08:05:20;;;;;;;;;;;12.70;99.90;;;;;;5093378;28;19916;-75
2022/10/30 08:07:47;;;;;;;;;;;12.70;99.90;;;;;;5091519;28;19977;-75
2022/10/30 08:10:12;;;;;;;;;;;12.80;99.90;;;;;;5093549;28;19909;-75
2022/10/30 08:12:39;;;;;;;;;;;12.80;99.90;;;;;;5092850;28;19908;-75
2022/10/30 08:15:05;;;;;;;;;;;12.80;99.90;;;;;;5093480;28;19912;-76
2022/10/30 08:17:31;;;;;;;;;;;12.90;99.90;;;;;;5093355;28;19913;-76
2022/10/30 08:19:56;;;;;;;;;;;12.90;99.90;;;;;;5092581;28;19912;-76
2022/10/30 08:22:22;;;;;;;;;;;12.90;99.90;;;;;;5092043;28;20380;-75
2022/10/30 08:24:47;;;;;;;;;;;13.00;99.90;;;;;;5092134;28;19963;-76
2022/10/30 08:27:13;;;;;;;;;;;12.90;99.90;;;;;;5092999;28;20277;-76
2022/10/30 08:29:38;;;;;;;;;;;13.00;99.90;;;;;;5092668;28;20038;-76
2022/10/30 08:32:04;;;;;;;;;;;12.90;99.90;;;;;;5093413;28;19916;-76
2022/10/30 08:34:31;;;;;;;;;;;12.90;99.90;;;;;;5093274;28;19908;-75
2022/10/30 08:36:57;;;;;;;;;;;12.90;99.90;;;;;;5092201;28;20020;-75
2022/10/30 08:39:22;;;;;;;;;;;12.80;99.90;;;;;;5093105;28;19951;-76
2022/10/30 08:41:48;;;;;;;;;;;12.90;99.90;;;;;;5091914;28;19908;-76
2022/10/30 08:44:13;;;;;;;;;;;12.90;99.90;;;;;;5092473;28;19912;-75
2022/10/30 08:46:39;;;;;;;;;;;13.00;99.90;;;;;;5092408;28;19912;-76
2022/10/30 08:49:04;;;;;;;;;;;13.00;99.90;;;;;;5092935;28;19951;-76
2022/10/30 08:51:33;;;;;;;;;;;13.20;99.90;;;;;;5093033;28;20328;-75
2022/10/30 08:53:59;;;;;;;;;;;13.20;99.90;;;;;;5092336;28;19908;-75
2022/10/30 08:56:25;;;;;;;;;;;13.30;99.90;;;;;;5092804;28;20003;-75
2022/10/30 08:58:50;;;;;;;;;;;13.30;99.90;;;;;;5090956;28;19919;-76
2022/10/30 09:01:17;;;;;;;;;;;13.30;99.90;;;;;;5094336;28;19962;-77
2022/10/30 09:03:43;;;;;;;;;;;13.30;99.90;;;;;;5096386;28;19918;-77
2022/10/30 09:06:09;;;;;;;;;;;13.30;99.90;;;;;;5096752;28;19995;-77
2022/10/30 09:08:35;;;;;;;;;;;13.40;99.90;;;;;;5096011;28;20033;-74
2022/10/30 09:11:00;;;;;;;;;;;13.40;99.90;;;;;;5095987;28;19955;-76
2022/10/30 09:13:26;;;;;;;;;;;13.30;99.90;;;;;;5096857;28;19915;-75
2022/10/30 09:15:51;;;;;;;;;;;13.40;99.90;;;;;;5096236;28;20388;-76
2022/10/30 09:18:17;;;;;;;;;;;13.40;99.90;;;;;;5096992;28;19908;-76
2022/10/30 09:20:43;;;;;;;;;;;13.30;99.90;;;;;;5096174;28;19908;-76
2022/10/30 09:23:08;;;;;;;;;;;13.40;99.90;;;;;;5096570;28;19998;-76
2022/10/30 09:25:34;;;;;;;;;;;13.40;99.90;;;;;;5096618;28;20007;-76
2022/10/30 09:27:59;;;;;;;;;;;13.40;99.90;;;;;;5094331;28;20365;-76
2022/10/30 09:30:25;;;;;;;;;;;13.50;99.90;;;;;;5094899;28;19915;-77
2022/10/30 09:32:55;;;;;;;;;;;13.50;99.90;;;;;;5095174;28;19966;-77
2022/10/30 09:35:20;;;;;;;;;;;13.60;99.90;;;;;;5096290;28;19912;-75
2022/10/30 09:37:46;;;;;;;;;;;13.60;99.90;;;;;;5095692;28;19914;-75
2022/10/30 09:40:18;;;;;;;;;;;13.70;99.90;;;;;;5096279;28;19914;-74
2022/10/30 09:42:48;;;;;;;;;;;13.70;99.90;;;;;;5095435;28;20291;-76
2022/10/30 09:45:26;;;;;;;;;;;13.70;99.90;;;;;;5096127;28;19920;-75
2022/10/30 09:48:11;;;;;;;;;;;13.80;99.90;;;;;;5095303;28;20015;-75
2022/10/30 09:50:39;;;;;;;;;;;13.90;99.90;;;;;;5096045;28;19908;-75
2022/10/30 09:53:13;;;;;;;;;;;13.90;99.90;;;;;;5095043;28;19908;-75
2022/10/30 09:55:48;;;;;;;;;;;14.00;99.90;;;;;;5095919;28;19954;-75
2022/10/30 09:58:32;;;;;;;;;;;14.10;99.90;;;;;;5095651;28;19948;-75
2022/10/30 10:01:33;;;;;;;;;;;14.20;99.90;;;;;;5095064;28;19995;-75
2022/10/30 10:04:27;;;;;;;;;;;14.30;99.90;;;;;;5052185;28;19960;-75
2022/10/30 10:06:56;;;;;;;;;;;14.40;99.90;;;;;;5084703;28;19912;-75
2022/10/30 10:09:24;;;;;;;;;;;14.50;99.90;;;;;;5094289;28;19908;-75
2022/10/30 10:11:53;;;;;;;;;;;14.50;99.90;;;;;;5094247;28;19954;-75
2022/10/30 10:14:25;;;;;;;;;;;14.50;99.90;;;;;;5095190;28;20319;-74
2022/10/30 10:16:51;;;;;;;;;;;14.60;99.90;;;;;;5094730;28;19915;-75
2022/10/30 10:19:20;;;;;;;;;;;14.60;99.90;;;;;;5094948;28;20269;-75
2022/10/30 10:21:56;;;;;;;;;;;14.50;99.90;;;;;;5093653;28;20392;-74
2022/10/30 10:24:26;;;;;;;;;;;14.50;99.90;;;;;;5094896;28;19912;-76
2022/10/30 10:26:51;;;;;;;;;;;14.50;99.90;;;;;;5094289;28;19923;-75
2022/10/30 10:29:21;;;;;;;;;;;14.50;99.90;;;;;;5093596;28;19912;-75
2022/10/30 10:32:05;;;;;;;;;;;14.60;99.90;;;;;;5094752;28;19912;-75
2022/10/30 10:34:31;;;;;;;;;;;14.60;99.90;;;;;;5094895;28;20380;-75
2022/10/30 10:36:56;;;;;;;;;;;14.60;99.90;;;;;;5094778;28;19908;-75
2022/10/30 10:39:28;;;;;;;;;;;14.60;99.90;;;;;;5095007;28;20261;-75
2022/10/30 10:42:01;;;;;;;;;;;14.70;99.90;;;;;;5094145;28;19915;-75
2022/10/30 10:44:41;;;;;;;;;;;14.70;99.90;;;;;;5094792;28;19913;-74
2022/10/30 10:47:09;;;;;;;;;;;14.70;99.90;;;;;;5094585;28;19915;-75
2022/10/30 10:49:46;;;;;;;;;;;14.70;99.90;;;;;;5094743;28;20003;-76
2022/10/30 10:52:18;;;;;;;;;;;14.70;99.90;;;;;;5094795;28;20277;-76
2022/10/30 10:54:53;;;;;;;;;;;14.70;99.90;;;;;;5094897;28;19908;-76
2022/10/30 10:57:22;;;;;;;;;;;14.70;99.90;;;;;;5096132;28;19923;-76
2022/10/30 10:59:52;;;;;;;;;;;14.60;99.90;;;;;;5096073;28;19919;-76
2022/10/30 11:02:28;;;;;;;;;;;14.60;99.90;;;;;;5094084;28;20003;-76
2022/10/30 11:04:58;;;;;;;;;;;14.60;99.90;;;;;;5093836;28;19919;-76
2022/10/30 11:07:25;;;;;;;;;;;14.60;99.90;;;;;;5094215;28;19944;-76
2022/10/30 11:09:55;;;;;;;;;;;14.60;99.90;;;;;;5092242;28;20426;-76
2022/10/30 11:12:23;;;;;;;;;;;14.70;99.90;;;;;;5094117;28;19908;-76
2022/10/30 11:14:48;;;;;;;;;;;14.70;99.90;;;;;;5093294;28;19915;-77
2022/10/30 11:17:23;;;;;;;;;;;14.70;99.90;;;;;;5094194;28;20311;-75
2022/10/30 11:19:50;;;;;;;;;;;14.80;99.90;;;;;;5093641;28;19990;-76
2022/10/30 11:22:28;;;;;;;;;;;14.90;99.90;;;;;;5094133;28;19908;-76
2022/10/30 11:24:53;;;;;;;;;;;15.00;99.90;;;;;;5092535;28;19912;-76
2022/10/30 11:27:22;;;;;;;;;;;15.00;99.90;;;;;;5093634;28;20007;-75
2022/10/30 11:29:53;;;;;;;;;;;15.10;99.90;;;;;;5093602;28;19914;-76
2022/10/30 11:32:21;;;;;;;;;;;15.20;99.90;;;;;;5093629;28;20015;-76
2022/10/30 11:34:59;;;;;;;;;;;15.20;99.90;;;;;;5093757;28;19908;-76
2022/10/30 11:37:29;;;;;;;;;;;15.20;99.90;;;;;;5093651;28;19915;-77
2022/10/30 11:40:07;;;;;;;;;;;15.10;99.90;;;;;;5093238;28;19909;-76
2022/10/30 11:42:33;;;;;;;;;;;15.00;99.90;;;;;;5095497;28;19908;-75
2022/10/30 11:44:59;;;;;;;;;;;14.80;99.90;;;;;;5091687;28;20046;-76
2022/10/30 11:47:34;;;;;;;;;;;14.70;99.90;;;;;;5093259;28;20389;-75
2022/10/30 11:50:02;;;;;;;;;;;14.60;99.90;;;;;;5092972;28;20422;-75
2022/10/30 11:52:27;;;;;;;;;;;14.50;99.90;;;;;;5093410;28;19912;-75
2022/10/30 11:54:55;;;;;;;;;;;14.50;99.90;;;;;;5093020;28;19953;-76
2022/10/30 11:57:31;;;;;;;;;;;14.40;99.90;;;;;;5093557;28;19964;-76
2022/10/30 11:59:57;;;;;;;;;;;14.40;99.90;;;;;;5092968;28;19908;-77
2022/10/30 12:02:26;;;;;;;;;;;14.30;99.90;;;;;;5092929;28;19909;-75
2022/10/30 12:04:52;;;;;;;;;;;14.30;99.90;;;;;;5092640;28;19912;-76
2022/10/30 12:07:23;;;;;;;;;;;14.20;99.90;;;;;;5092710;28;19912;-75
2022/10/30 12:09:48;;;;;;;;;;;14.30;99.90;;;;;;5093420;28;19917;-75
2022/10/30 12:12:26;;;;;;;;;;;14.30;99.90;;;;;;5092845;28;19908;-75
2022/10/30 12:14:52;;;;;;;;;;;14.40;99.90;;;;;;5092768;28;20028;-76
2022/10/30 12:17:19;;;;;;;;;;;14.60;99.90;;;;;;5093567;28;20357;-75
2022/10/30 12:19:54;;;;;;;;;;;14.70;99.90;;;;;;5093229;28;20400;-75
2022/10/30 12:22:29;;;;;;;;;;;14.80;99.90;;;;;;5093160;28;20002;-76
2022/10/30 12:24:55;;;;;;;;;;;15.00;99.90;;;;;;5091043;28;19913;-75
2022/10/30 12:27:21;;;;;;;;;;;15.10;99.90;;;;;;5092676;28;19912;-75
2022/10/30 12:30:07;;;;;;;;;;;15.20;99.90;;;;;;5093106;28;20310;-75
2022/10/30 12:32:39;;;;;;;;;;;15.30;99.90;;;;;;5092800;28;20292;-75
2022/10/30 12:35:13;;;;;;;;;;;15.30;99.90;;;;;;5092240;28;19909;-75
2022/10/30 12:37:40;;;;;;;;;;;15.30;99.90;;;;;;5092762;28;19987;-75
2022/10/30 12:40:35;;;;;;;;;;;15.20;99.90;;;;;;5092408;28;19908;-75
2022/10/30 12:43:07;;;;;;;;;;;15.10;99.90;;;;;;5082829;28;20379;-75
2022/10/30 12:45:50;;;;;;;;;;;15.10;99.90;;;;;;5093503;28;19975;-75
2022/10/30 12:48:23;;;;;;;;;;;15.00;99.90;;;;;;5092608;28;20281;-76
2022/10/30 12:51:07;;;;;;;;;;;15.00;99.90;;;;;;5092979;28;19934;-76
2022/10/30 12:53:45;;;;;;;;;;;15.10;99.90;;;;;;5092940;28;20011;-75
2022/10/30 12:56:40;;;;;;;;;;;15.20;99.90;;;;;;5092114;28;20382;-75
2022/10/30 12:59:26;;;;;;;;;;;15.20;99.90;;;;;;5082796;28;19931;-75
2022/10/30 13:02:09;;;;;;;;;;;15.20;99.90;;;;;;5092445;28;19912;-75
2022/10/30 13:04:37;;;;;;;;;;;15.20;99.90;;;;;;5093030;28;19912;-76
2022/10/30 13:07:23;;;;;;;;;;;15.20;99.90;;;;;;5091868;28;20265;-75
2022/10/30 13:10:12;;;;;;;;;;;15.20;99.90;;;;;;5092182;28;19908;-77
2022/10/30 13:12:38;;;;;;;;;;;15.30;99.90;;;;;;5092821;28;19915;-76
2022/10/30 13:15:22;;;;;;;;;;;15.20;99.90;;;;;;5091648;28;19999;-76
2022/10/30 13:17:48;;;;;;;;;;;15.30;99.90;;;;;;5091531;28;19995;-76
2022/10/30 13:20:14;;;;;;;;;;;15.40;99.90;;;;;;5092243;28;20373;-76
2022/10/30 13:22:58;;;;;;;;;;;15.40;99.90;;;;;;5092686;28;19908;-76
2022/10/30 13:25:30;;;;;;;;;;;15.40;99.90;;;;;;5092287;28;19916;-75
2022/10/30 13:28:11;;;;;;;;;;;15.30;99.90;;;;;;5091910;28;20003;-76
2022/10/30 13:30:39;;;;;;;;;;;15.20;99.90;;;;;;5092447;28;19915;-75
2022/10/30 13:33:07;;;;;;;;;;;15.20;99.90;;;;;;5091731;28;19909;-76
2022/10/30 13:35:37;;;;;;;;;;;15.20;99.90;;;;;;5092378;28;20345;-76
2022/10/30 13:38:05;;;;;;;;;;;15.10;99.90;;;;;;5092032;28;19961;-76
2022/10/30 13:40:50;;;;;;;;;;;15.10;99.90;;;;;;5092683;28;19995;-75
2022/10/30 13:43:30;;;;;;;;;;;15.10;99.90;;;;;;5091377;28;20589;-76
2022/10/30 13:46:14;;;;;;;;;;;15.00;99.90;;;;;;5091938;28;19966;-75
2022/10/30 13:48:57;;;;;;;;;;;15.00;99.90;;;;;;5095272;28;20007;-77
2022/10/30 13:51:28;;;;;;;;;;;15.00;99.90;;;;;;5095946;28;20019;-77
2022/10/30 13:54:07;;;;;;;;;;;15.10;99.90;;;;;;5096395;28;19955;-76
2022/10/30 13:56:33;;;;;;;;;;;15.00;99.90;;;;;;5095894;28;20426;-76
2022/10/30 13:59:07;;;;;;;;;;;15.00;99.90;;;;;;5094275;28;19908;-75
2022/10/30 14:01:51;;;;;;;;;;;15.10;99.90;;;;;;5095966;28;19915;-75
2022/10/30 14:04:20;;;;;;;;;;;15.10;99.90;;;;;;5095279;28;19912;-76
2022/10/30 14:07:17;;;;;;;;;;;15.20;99.90;;;;;;5095864;28;19912;-76
2022/10/30 14:09:58;;;;;;;;;;;15.30;99.90;;;;;;5072261;28;19908;-76
2022/10/30 14:12:42;;;;;;;;;;;15.40;99.90;;;;;;5095722;28;20341;-76
2022/10/30 14:15:28;;;;;;;;;;;15.30;99.90;;;;;;5095020;28;19908;-77
2022/10/30 14:18:13;;;;;;;;;;;15.40;99.90;;;;;;5083169;28;19908;-76
2022/10/30 14:20:46;;;;;;;;;;;15.40;99.90;;;;;;5062422;28;19908;-75
2022/10/30 14:23:22;;;;;;;;;;;15.30;99.90;;;;;;5094760;28;19970;-75
2022/10/30 14:26:03;;;;;;;;;;;15.40;99.90;;;;;;5095541;28;19957;-75